sensor_id;sensor_type;location;lat;lon;timestamp;P1;durP1;ratioP1;P2;durP2;ratioP2
40122;SDS011;25832;45.490;4.912;2024-03-06T00:01:30;7.38;;;2.47;;
40122;SDS011;25832;45.490;4.912;2024-03-06T00:03:56;6.25;;;3.03;;
40122;SDS011;25832;45.490;4.912;2024-03-06T00:06:22;9.70;;;2.63;;
40122;SDS011;25832;45.490;4.912;2024-03-06T00:08:49;6.88;;;2.47;;
40122;SDS011;25832;45.490;4.912;2024-03-06T00:11:15;3.80;;;1.80;;
40122;SDS011;25832;45.490;4.912;2024-03-06T00:13:41;5.35;;;1.92;;
40122;SDS011;25832;45.490;4.912;2024-03-06T00:16:06;10.55;;;3.40;;
40122;SDS011;25832;45.490;4.912;2024-03-06T00:18:32;6.95;;;3.42;;
40122;SDS011;25832;45.490;4.912;2024-03-06T00:20:58;5.18;;;3.40;;
40122;SDS011;25832;45.490;4.912;2024-03-06T00:23:24;9.82;;;3.67;;
40122;SDS011;25832;45.490;4.912;2024-03-06T00:25:49;5.22;;;3.20;;
40122;SDS011;25832;45.490;4.912;2024-03-06T00:28:15;4.95;;;3.33;;
40122;SDS011;25832;45.490;4.912;2024-03-06T00:30:41;7.10;;;2.67;;
40122;SDS011;25832;45.490;4.912;2024-03-06T00:33:07;6.90;;;3.25;;
40122;SDS011;25832;45.490;4.912;2024-03-06T00:35:33;7.70;;;2.92;;
40122;SDS011;25832;45.490;4.912;2024-03-06T00:37:58;5.93;;;3.08;;
40122;SDS011;25832;45.490;4.912;2024-03-06T00:40:27;4.88;;;2.50;;
40122;SDS011;25832;45.490;4.912;2024-03-06T00:42:55;5.55;;;2.28;;
40122;SDS011;25832;45.490;4.912;2024-03-06T00:45:22;5.13;;;1.77;;
40122;SDS011;25832;45.490;4.912;2024-03-06T00:47:48;3.85;;;2.25;;
40122;SDS011;25832;45.490;4.912;2024-03-06T00:50:13;5.38;;;2.30;;
40122;SDS011;25832;45.490;4.912;2024-03-06T00:52:41;5.93;;;2.25;;
40122;SDS011;25832;45.490;4.912;2024-03-06T00:55:08;9.98;;;3.30;;
40122;SDS011;25832;45.490;4.912;2024-03-06T00:57:34;6.70;;;3.40;;
40122;SDS011;25832;45.490;4.912;2024-03-06T01:00:01;5.43;;;2.58;;
40122;SDS011;25832;45.490;4.912;2024-03-06T01:02:31;5.65;;;2.70;;
40122;SDS011;25832;45.490;4.912;2024-03-06T01:04:56;6.70;;;2.72;;
40122;SDS011;25832;45.490;4.912;2024-03-06T01:07:22;6.00;;;2.75;;
40122;SDS011;25832;45.490;4.912;2024-03-06T01:09:48;2.42;;;1.42;;
40122;SDS011;25832;45.490;4.912;2024-03-06T01:12:13;6.15;;;2.28;;
40122;SDS011;25832;45.490;4.912;2024-03-06T01:14:39;6.35;;;2.47;;
40122;SDS011;25832;45.490;4.912;2024-03-06T01:17:04;4.65;;;2.25;;
40122;SDS011;25832;45.490;4.912;2024-03-06T01:19:31;3.85;;;2.20;;
40122;SDS011;25832;45.490;4.912;2024-03-06T01:21:56;5.88;;;3.40;;
40122;SDS011;25832;45.490;4.912;2024-03-06T01:24:22;7.72;;;4.10;;
40122;SDS011;25832;45.490;4.912;2024-03-06T01:26:48;6.80;;;4.35;;
40122;SDS011;25832;45.490;4.912;2024-03-06T01:29:13;4.93;;;2.53;;
40122;SDS011;25832;45.490;4.912;2024-03-06T01:31:39;3.53;;;1.92;;
40122;SDS011;25832;45.490;4.912;2024-03-06T01:34:04;4.13;;;2.10;;
40122;SDS011;25832;45.490;4.912;2024-03-06T01:36:30;8.55;;;3.42;;
40122;SDS011;25832;45.490;4.912;2024-03-06T01:38:56;8.48;;;3.83;;
40122;SDS011;25832;45.490;4.912;2024-03-06T01:41:21;5.85;;;3.38;;
40122;SDS011;25832;45.490;4.912;2024-03-06T01:43:47;8.63;;;2.83;;
40122;SDS011;25832;45.490;4.912;2024-03-06T01:46:13;2.60;;;1.80;;
40122;SDS011;25832;45.490;4.912;2024-03-06T01:48:38;3.45;;;1.90;;
40122;SDS011;25832;45.490;4.912;2024-03-06T01:51:05;4.97;;;1.70;;
40122;SDS011;25832;45.490;4.912;2024-03-06T01:53:31;4.22;;;1.95;;
40122;SDS011;25832;45.490;4.912;2024-03-06T01:55:58;5.32;;;1.67;;
40122;SDS011;25832;45.490;4.912;2024-03-06T01:58:24;3.40;;;1.70;;
40122;SDS011;25832;45.490;4.912;2024-03-06T02:00:50;4.18;;;2.03;;
40122;SDS011;25832;45.490;4.912;2024-03-06T02:03:17;1.83;;;1.17;;
40122;SDS011;25832;45.490;4.912;2024-03-06T02:05:44;4.40;;;2.40;;
40122;SDS011;25832;45.490;4.912;2024-03-06T02:08:10;3.05;;;1.48;;
40122;SDS011;25832;45.490;4.912;2024-03-06T02:10:35;3.75;;;1.90;;
40122;SDS011;25832;45.490;4.912;2024-03-06T02:13:01;7.60;;;1.80;;
40122;SDS011;25832;45.490;4.912;2024-03-06T02:15:27;2.42;;;1.45;;
40122;SDS011;25832;45.490;4.912;2024-03-06T02:17:53;2.55;;;1.42;;
40122;SDS011;25832;45.490;4.912;2024-03-06T02:20:25;4.57;;;2.38;;
40122;SDS011;25832;45.490;4.912;2024-03-06T02:22:50;4.97;;;1.92;;
40122;SDS011;25832;45.490;4.912;2024-03-06T02:25:16;3.67;;;2.50;;
40122;SDS011;25832;45.490;4.912;2024-03-06T02:27:44;11.10;;;5.05;;
40122;SDS011;25832;45.490;4.912;2024-03-06T02:30:09;11.40;;;4.68;;
40122;SDS011;25832;45.490;4.912;2024-03-06T02:32:35;9.32;;;3.65;;
40122;SDS011;25832;45.490;4.912;2024-03-06T02:35:02;4.25;;;2.65;;
40122;SDS011;25832;45.490;4.912;2024-03-06T02:37:33;6.13;;;2.83;;
40122;SDS011;25832;45.490;4.912;2024-03-06T02:39:59;3.67;;;2.38;;
40122;SDS011;25832;45.490;4.912;2024-03-06T02:42:27;3.60;;;2.20;;
40122;SDS011;25832;45.490;4.912;2024-03-06T02:44:53;8.85;;;3.58;;
40122;SDS011;25832;45.490;4.912;2024-03-06T02:47:18;5.05;;;2.40;;
40122;SDS011;25832;45.490;4.912;2024-03-06T02:49:44;4.53;;;2.53;;
40122;SDS011;25832;45.490;4.912;2024-03-06T02:52:10;8.20;;;2.80;;
40122;SDS011;25832;45.490;4.912;2024-03-06T02:54:35;4.65;;;2.10;;
40122;SDS011;25832;45.490;4.912;2024-03-06T02:57:01;3.30;;;1.50;;
40122;SDS011;25832;45.490;4.912;2024-03-06T02:59:27;3.47;;;1.05;;
40122;SDS011;25832;45.490;4.912;2024-03-06T03:01:52;2.15;;;1.27;;
40122;SDS011;25832;45.490;4.912;2024-03-06T03:04:18;4.07;;;1.13;;
40122;SDS011;25832;45.490;4.912;2024-03-06T03:06:44;1.85;;;1.30;;
40122;SDS011;25832;45.490;4.912;2024-03-06T03:09:09;2.58;;;1.52;;
40122;SDS011;25832;45.490;4.912;2024-03-06T03:11:37;3.50;;;1.60;;
40122;SDS011;25832;45.490;4.912;2024-03-06T03:14:03;3.67;;;1.52;;
40122;SDS011;25832;45.490;4.912;2024-03-06T03:16:28;4.53;;;1.75;;
40122;SDS011;25832;45.490;4.912;2024-03-06T03:18:55;6.07;;;1.65;;
40122;SDS011;25832;45.490;4.912;2024-03-06T03:21:20;2.42;;;1.38;;
40122;SDS011;25832;45.490;4.912;2024-03-06T03:23:47;4.50;;;1.90;;
40122;SDS011;25832;45.490;4.912;2024-03-06T03:26:13;2.47;;;1.65;;
40122;SDS011;25832;45.490;4.912;2024-03-06T03:28:39;1.08;;;0.88;;
40122;SDS011;25832;45.490;4.912;2024-03-06T03:31:06;1.23;;;0.90;;
40122;SDS011;25832;45.490;4.912;2024-03-06T03:33:33;0.90;;;0.55;;
40122;SDS011;25832;45.490;4.912;2024-03-06T03:36:03;2.20;;;1.10;;
40122;SDS011;25832;45.490;4.912;2024-03-06T03:38:30;1.27;;;1.10;;
40122;SDS011;25832;45.490;4.912;2024-03-06T03:40:56;3.70;;;1.25;;
40122;SDS011;25832;45.490;4.912;2024-03-06T03:43:22;1.25;;;1.15;;
40122;SDS011;25832;45.490;4.912;2024-03-06T03:45:47;3.00;;;1.30;;
40122;SDS011;25832;45.490;4.912;2024-03-06T03:48:13;2.25;;;1.15;;
40122;SDS011;25832;45.490;4.912;2024-03-06T03:50:39;1.70;;;0.90;;
40122;SDS011;25832;45.490;4.912;2024-03-06T03:53:05;2.03;;;0.82;;
40122;SDS011;25832;45.490;4.912;2024-03-06T03:55:31;1.25;;;1.00;;
40122;SDS011;25832;45.490;4.912;2024-03-06T03:57:56;1.42;;;0.98;;
40122;SDS011;25832;45.490;4.912;2024-03-06T04:00:22;0.95;;;0.70;;
40122;SDS011;25832;45.490;4.912;2024-03-06T04:02:48;0.75;;;0.68;;
40122;SDS011;25832;45.490;4.912;2024-03-06T04:05:13;3.20;;;0.68;;
40122;SDS011;25832;45.490;4.912;2024-03-06T04:07:39;1.17;;;0.80;;
40122;SDS011;25832;45.490;4.912;2024-03-06T04:10:05;1.75;;;1.05;;
40122;SDS011;25832;45.490;4.912;2024-03-06T04:12:32;1.63;;;0.90;;
40122;SDS011;25832;45.490;4.912;2024-03-06T04:14:57;0.80;;;0.77;;
40122;SDS011;25832;45.490;4.912;2024-03-06T04:17:23;1.92;;;0.80;;
40122;SDS011;25832;45.490;4.912;2024-03-06T04:19:50;4.43;;;0.90;;
40122;SDS011;25832;45.490;4.912;2024-03-06T04:22:18;1.52;;;0.90;;
40122;SDS011;25832;45.490;4.912;2024-03-06T04:24:44;5.10;;;1.05;;
40122;SDS011;25832;45.490;4.912;2024-03-06T04:27:10;0.40;;;0.40;;
40122;SDS011;25832;45.490;4.912;2024-03-06T04:29:35;2.15;;;0.95;;
40122;SDS011;25832;45.490;4.912;2024-03-06T04:32:01;0.70;;;0.50;;
40122;SDS011;25832;45.490;4.912;2024-03-06T04:34:27;1.17;;;0.93;;
40122;SDS011;25832;45.490;4.912;2024-03-06T04:36:52;0.88;;;0.80;;
40122;SDS011;25832;45.490;4.912;2024-03-06T04:39:18;1.70;;;0.63;;
40122;SDS011;25832;45.490;4.912;2024-03-06T04:41:44;3.58;;;1.10;;
40122;SDS011;25832;45.490;4.912;2024-03-06T04:44:09;1.08;;;0.75;;
40122;SDS011;25832;45.490;4.912;2024-03-06T04:46:35;0.50;;;0.50;;
40122;SDS011;25832;45.490;4.912;2024-03-06T04:49:00;0.90;;;0.68;;
40122;SDS011;25832;45.490;4.912;2024-03-06T04:51:26;1.10;;;0.55;;
40122;SDS011;25832;45.490;4.912;2024-03-06T04:53:52;1.67;;;0.70;;
40122;SDS011;25832;45.490;4.912;2024-03-06T04:56:17;1.05;;;0.65;;
40122;SDS011;25832;45.490;4.912;2024-03-06T04:58:47;1.07;;;0.63;;
40122;SDS011;25832;45.490;4.912;2024-03-06T05:01:12;1.17;;;0.65;;
40122;SDS011;25832;45.490;4.912;2024-03-06T05:03:38;2.22;;;0.85;;
40122;SDS011;25832;45.490;4.912;2024-03-06T05:06:05;2.05;;;0.77;;
40122;SDS011;25832;45.490;4.912;2024-03-06T05:08:31;1.17;;;0.70;;
40122;SDS011;25832;45.490;4.912;2024-03-06T05:10:56;0.68;;;0.57;;
40122;SDS011;25832;45.490;4.912;2024-03-06T05:13:25;1.70;;;0.70;;
40122;SDS011;25832;45.490;4.912;2024-03-06T05:15:51;1.85;;;0.93;;
40122;SDS011;25832;45.490;4.912;2024-03-06T05:18:17;3.35;;;1.15;;
40122;SDS011;25832;45.490;4.912;2024-03-06T05:20:43;2.67;;;1.13;;
40122;SDS011;25832;45.490;4.912;2024-03-06T05:23:08;2.60;;;1.10;;
40122;SDS011;25832;45.490;4.912;2024-03-06T05:25:34;1.85;;;0.90;;
40122;SDS011;25832;45.490;4.912;2024-03-06T05:28:00;2.13;;;0.80;;
40122;SDS011;25832;45.490;4.912;2024-03-06T05:30:25;4.43;;;1.17;;
40122;SDS011;25832;45.490;4.912;2024-03-06T05:32:51;1.95;;;1.20;;
40122;SDS011;25832;45.490;4.912;2024-03-06T05:35:17;2.05;;;1.42;;
40122;SDS011;25832;45.490;4.912;2024-03-06T05:37:43;3.38;;;1.30;;
40122;SDS011;25832;45.490;4.912;2024-03-06T05:40:08;4.80;;;1.10;;
40122;SDS011;25832;45.490;4.912;2024-03-06T05:42:35;4.28;;;1.30;;
40122;SDS011;25832;45.490;4.912;2024-03-06T05:45:01;1.83;;;1.08;;
40122;SDS011;25832;45.490;4.912;2024-03-06T05:47:31;3.80;;;1.92;;
40122;SDS011;25832;45.490;4.912;2024-03-06T05:49:57;1.92;;;1.10;;
40122;SDS011;25832;45.490;4.912;2024-03-06T05:52:22;1.77;;;1.25;;
40122;SDS011;25832;45.490;4.912;2024-03-06T05:54:49;4.40;;;1.83;;
40122;SDS011;25832;45.490;4.912;2024-03-06T05:57:15;2.85;;;1.80;;
40122;SDS011;25832;45.490;4.912;2024-03-06T05:59:41;3.60;;;1.75;;
40122;SDS011;25832;45.490;4.912;2024-03-06T06:02:07;3.42;;;1.77;;
40122;SDS011;25832;45.490;4.912;2024-03-06T06:04:32;3.50;;;1.95;;
40122;SDS011;25832;45.490;4.912;2024-03-06T06:06:58;2.42;;;1.73;;
40122;SDS011;25832;45.490;4.912;2024-03-06T06:09:24;4.60;;;2.22;;
40122;SDS011;25832;45.490;4.912;2024-03-06T06:11:49;3.22;;;1.63;;
40122;SDS011;25832;45.490;4.912;2024-03-06T06:14:15;3.00;;;1.35;;
40122;SDS011;25832;45.490;4.912;2024-03-06T06:16:41;3.25;;;1.70;;
40122;SDS011;25832;45.490;4.912;2024-03-06T06:19:07;2.47;;;1.35;;
40122;SDS011;25832;45.490;4.912;2024-03-06T06:21:33;4.60;;;1.30;;
40122;SDS011;25832;45.490;4.912;2024-03-06T06:24:01;4.60;;;2.33;;
40122;SDS011;25832;45.490;4.912;2024-03-06T06:26:28;3.25;;;1.75;;
40122;SDS011;25832;45.490;4.912;2024-03-06T06:28:55;4.55;;;1.52;;
40122;SDS011;25832;45.490;4.912;2024-03-06T06:31:22;3.17;;;1.70;;
40122;SDS011;25832;45.490;4.912;2024-03-06T06:33:48;3.33;;;1.88;;
40122;SDS011;25832;45.490;4.912;2024-03-06T06:36:14;4.65;;;1.80;;
40122;SDS011;25832;45.490;4.912;2024-03-06T06:38:40;3.92;;;1.30;;
40122;SDS011;25832;45.490;4.912;2024-03-06T06:41:05;3.47;;;1.50;;
40122;SDS011;25832;45.490;4.912;2024-03-06T06:43:31;6.70;;;1.73;;
40122;SDS011;25832;45.490;4.912;2024-03-06T06:45:57;3.60;;;1.42;;
40122;SDS011;25832;45.490;4.912;2024-03-06T06:48:22;2.80;;;1.65;;
40122;SDS011;25832;45.490;4.912;2024-03-06T06:50:48;5.53;;;1.75;;
40122;SDS011;25832;45.490;4.912;2024-03-06T06:53:13;3.55;;;1.75;;
40122;SDS011;25832;45.490;4.912;2024-03-06T06:55:39;2.25;;;1.55;;
40122;SDS011;25832;45.490;4.912;2024-03-06T06:58:05;2.28;;;1.40;;
40122;SDS011;25832;45.490;4.912;2024-03-06T07:00:31;3.10;;;1.92;;
40122;SDS011;25832;45.490;4.912;2024-03-06T07:02:58;3.60;;;1.88;;
40122;SDS011;25832;45.490;4.912;2024-03-06T07:05:24;1.95;;;1.55;;
40122;SDS011;25832;45.490;4.912;2024-03-06T07:07:49;5.07;;;1.95;;
40122;SDS011;25832;45.490;4.912;2024-03-06T07:10:15;3.65;;;2.20;;
40122;SDS011;25832;45.490;4.912;2024-03-06T07:12:40;3.90;;;1.90;;
40122;SDS011;25832;45.490;4.912;2024-03-06T07:15:06;1.70;;;1.10;;
40122;SDS011;25832;45.490;4.912;2024-03-06T07:17:32;3.75;;;1.52;;
40122;SDS011;25832;45.490;4.912;2024-03-06T07:19:58;3.38;;;1.98;;
40122;SDS011;25832;45.490;4.912;2024-03-06T07:22:24;5.80;;;3.10;;
40122;SDS011;25832;45.490;4.912;2024-03-06T07:24:49;7.63;;;3.83;;
40122;SDS011;25832;45.490;4.912;2024-03-06T07:27:15;7.38;;;4.25;;
40122;SDS011;25832;45.490;4.912;2024-03-06T07:29:41;8.63;;;4.28;;
40122;SDS011;25832;45.490;4.912;2024-03-06T07:32:06;10.38;;;4.88;;
40122;SDS011;25832;45.490;4.912;2024-03-06T07:34:32;9.50;;;4.47;;
40122;SDS011;25832;45.490;4.912;2024-03-06T07:36:58;16.45;;;6.35;;
40122;SDS011;25832;45.490;4.912;2024-03-06T07:39:24;11.38;;;5.35;;
40122;SDS011;25832;45.490;4.912;2024-03-06T07:41:51;13.23;;;6.28;;
40122;SDS011;25832;45.490;4.912;2024-03-06T07:44:16;14.05;;;6.30;;
40122;SDS011;25832;45.490;4.912;2024-03-06T07:46:42;16.75;;;7.13;;
40122;SDS011;25832;45.490;4.912;2024-03-06T07:49:08;12.35;;;6.00;;
40122;SDS011;25832;45.490;4.912;2024-03-06T07:51:33;9.93;;;4.93;;
40122;SDS011;25832;45.490;4.912;2024-03-06T07:54:00;8.25;;;4.38;;
40122;SDS011;25832;45.490;4.912;2024-03-06T07:56:26;7.50;;;4.18;;
40122;SDS011;25832;45.490;4.912;2024-03-06T07:58:53;5.47;;;2.60;;
40122;SDS011;25832;45.490;4.912;2024-03-06T08:01:19;5.60;;;3.35;;
40122;SDS011;25832;45.490;4.912;2024-03-06T08:03:48;7.40;;;4.25;;
40122;SDS011;25832;45.490;4.912;2024-03-06T08:06:14;4.88;;;3.15;;
40122;SDS011;25832;45.490;4.912;2024-03-06T08:08:41;6.38;;;2.80;;
40122;SDS011;25832;45.490;4.912;2024-03-06T08:11:09;4.65;;;2.40;;
40122;SDS011;25832;45.490;4.912;2024-03-06T08:13:35;4.60;;;2.00;;
40122;SDS011;25832;45.490;4.912;2024-03-06T08:16:01;4.85;;;2.00;;
40122;SDS011;25832;45.490;4.912;2024-03-06T08:18:29;3.47;;;2.40;;
40122;SDS011;25832;45.490;4.912;2024-03-06T08:20:54;5.85;;;2.20;;
40122;SDS011;25832;45.490;4.912;2024-03-06T08:23:20;6.28;;;2.10;;
40122;SDS011;25832;45.490;4.912;2024-03-06T08:25:46;3.80;;;2.20;;
40122;SDS011;25832;45.490;4.912;2024-03-06T08:28:11;11.63;;;4.45;;
40122;SDS011;25832;45.490;4.912;2024-03-06T08:30:37;6.63;;;3.38;;
40122;SDS011;25832;45.490;4.912;2024-03-06T08:33:03;7.82;;;4.25;;
40122;SDS011;25832;45.490;4.912;2024-03-06T08:35:29;8.13;;;3.85;;
40122;SDS011;25832;45.490;4.912;2024-03-06T08:37:55;9.32;;;3.90;;
40122;SDS011;25832;45.490;4.912;2024-03-06T08:40:20;5.35;;;2.20;;
40122;SDS011;25832;45.490;4.912;2024-03-06T08:42:48;3.20;;;2.33;;
40122;SDS011;25832;45.490;4.912;2024-03-06T08:45:13;5.47;;;2.60;;
40122;SDS011;25832;45.490;4.912;2024-03-06T08:47:43;6.40;;;3.65;;
40122;SDS011;25832;45.490;4.912;2024-03-06T08:50:09;6.38;;;2.67;;
40122;SDS011;25832;45.490;4.912;2024-03-06T08:52:36;5.15;;;2.47;;
40122;SDS011;25832;45.490;4.912;2024-03-06T08:55:02;3.85;;;1.95;;
40122;SDS011;25832;45.490;4.912;2024-03-06T08:57:31;3.92;;;1.83;;
40122;SDS011;25832;45.490;4.912;2024-03-06T08:59:58;3.13;;;1.80;;
40122;SDS011;25832;45.490;4.912;2024-03-06T09:02:24;3.65;;;2.08;;
40122;SDS011;25832;45.490;4.912;2024-03-06T09:04:51;4.32;;;1.65;;
40122;SDS011;25832;45.490;4.912;2024-03-06T09:07:17;4.82;;;1.52;;
40122;SDS011;25832;45.490;4.912;2024-03-06T09:09:43;3.38;;;2.17;;
40122;SDS011;25832;45.490;4.912;2024-03-06T09:12:10;2.58;;;1.55;;
40122;SDS011;25832;45.490;4.912;2024-03-06T09:14:36;3.13;;;1.83;;
40122;SDS011;25832;45.490;4.912;2024-03-06T09:17:03;2.97;;;1.40;;
40122;SDS011;25832;45.490;4.912;2024-03-06T09:19:30;1.40;;;1.15;;
40122;SDS011;25832;45.490;4.912;2024-03-06T09:21:56;7.90;;;2.33;;
40122;SDS011;25832;45.490;4.912;2024-03-06T09:24:22;5.45;;;2.10;;
40122;SDS011;25832;45.490;4.912;2024-03-06T09:26:48;6.57;;;2.42;;
40122;SDS011;25832;45.490;4.912;2024-03-06T09:29:14;3.63;;;1.75;;
40122;SDS011;25832;45.490;4.912;2024-03-06T09:31:41;3.50;;;2.17;;
40122;SDS011;25832;45.490;4.912;2024-03-06T09:34:07;4.40;;;2.22;;
40122;SDS011;25832;45.490;4.912;2024-03-06T09:36:36;4.70;;;1.30;;
40122;SDS011;25832;45.490;4.912;2024-03-06T09:39:02;3.13;;;1.42;;
40122;SDS011;25832;45.490;4.912;2024-03-06T09:41:29;4.20;;;2.00;;
40122;SDS011;25832;45.490;4.912;2024-03-06T09:43:55;3.20;;;1.80;;
40122;SDS011;25832;45.490;4.912;2024-03-06T09:46:21;4.18;;;1.30;;
40122;SDS011;25832;45.490;4.912;2024-03-06T09:48:47;5.30;;;1.52;;
40122;SDS011;25832;45.490;4.912;2024-03-06T09:51:16;2.28;;;1.52;;
40122;SDS011;25832;45.490;4.912;2024-03-06T09:53:42;2.22;;;1.30;;
40122;SDS011;25832;45.490;4.912;2024-03-06T09:56:08;3.60;;;2.00;;
40122;SDS011;25832;45.490;4.912;2024-03-06T09:58:37;1.27;;;1.02;;
40122;SDS011;25832;45.490;4.912;2024-03-06T10:01:03;5.88;;;1.23;;
40122;SDS011;25832;45.490;4.912;2024-03-06T10:03:32;2.90;;;1.70;;
40122;SDS011;25832;45.490;4.912;2024-03-06T10:05:58;3.15;;;1.75;;
40122;SDS011;25832;45.490;4.912;2024-03-06T10:08:24;4.72;;;1.67;;
40122;SDS011;25832;45.490;4.912;2024-03-06T10:10:51;4.55;;;2.10;;
40122;SDS011;25832;45.490;4.912;2024-03-06T10:13:17;3.20;;;1.60;;
40122;SDS011;25832;45.490;4.912;2024-03-06T10:16:02;2.83;;;1.25;;
40122;SDS011;25832;45.490;4.912;2024-03-06T10:18:29;1.58;;;1.10;;
40122;SDS011;25832;45.490;4.912;2024-03-06T10:20:57;1.80;;;1.27;;
40122;SDS011;25832;45.490;4.912;2024-03-06T10:23:23;3.88;;;1.52;;
40122;SDS011;25832;45.490;4.912;2024-03-06T10:25:49;3.05;;;1.48;;
40122;SDS011;25832;45.490;4.912;2024-03-06T10:28:17;2.30;;;1.38;;
40122;SDS011;25832;45.490;4.912;2024-03-06T10:30:44;3.65;;;1.05;;
40122;SDS011;25832;45.490;4.912;2024-03-06T10:33:14;3.72;;;1.20;;
40122;SDS011;25832;45.490;4.912;2024-03-06T10:38:08;1.33;;;0.82;;
40122;SDS011;25832;45.490;4.912;2024-03-06T10:40:36;2.78;;;0.90;;
40122;SDS011;25832;45.490;4.912;2024-03-06T10:43:03;1.80;;;0.95;;
40122;SDS011;25832;45.490;4.912;2024-03-06T10:48:16;3.28;;;1.17;;
40122;SDS011;25832;45.490;4.912;2024-03-06T10:50:43;1.45;;;0.98;;
40122;SDS011;25832;45.490;4.912;2024-03-06T10:53:10;3.88;;;1.25;;
40122;SDS011;25832;45.490;4.912;2024-03-06T10:55:38;2.15;;;0.60;;
40122;SDS011;25832;45.490;4.912;2024-03-06T10:58:07;2.35;;;1.13;;
40122;SDS011;25832;45.490;4.912;2024-03-06T11:00:37;1.73;;;0.95;;
40122;SDS011;25832;45.490;4.912;2024-03-06T11:03:08;1.35;;;0.68;;
40122;SDS011;25832;45.490;4.912;2024-03-06T11:05:46;1.58;;;0.80;;
40122;SDS011;25832;45.490;4.912;2024-03-06T11:08:12;1.85;;;0.98;;
40122;SDS011;25832;45.490;4.912;2024-03-06T11:10:40;4.05;;;0.68;;
40122;SDS011;25832;45.490;4.912;2024-03-06T11:15:45;3.90;;;0.90;;
40122;SDS011;25832;45.490;4.912;2024-03-06T11:23:32;6.32;;;1.23;;
40122;SDS011;25832;45.490;4.912;2024-03-06T11:26:04;2.00;;;1.20;;
40122;SDS011;25832;45.490;4.912;2024-03-06T11:28:34;4.85;;;1.77;;
40122;SDS011;25832;45.490;4.912;2024-03-06T11:31:06;3.85;;;1.75;;
40122;SDS011;25832;45.490;4.912;2024-03-06T11:33:42;4.07;;;1.92;;
40122;SDS011;25832;45.490;4.912;2024-03-06T11:36:27;4.82;;;1.45;;
40122;SDS011;25832;45.490;4.912;2024-03-06T11:38:57;1.77;;;1.13;;
40122;SDS011;25832;45.490;4.912;2024-03-06T11:41:27;2.90;;;1.30;;
40122;SDS011;25832;45.490;4.912;2024-03-06T11:43:55;4.32;;;1.10;;
40122;SDS011;25832;45.490;4.912;2024-03-06T11:46:22;3.78;;;1.63;;
40122;SDS011;25832;45.490;4.912;2024-03-06T11:49:04;3.38;;;1.10;;
40122;SDS011;25832;45.490;4.912;2024-03-06T11:51:50;2.17;;;0.98;;
40122;SDS011;25832;45.490;4.912;2024-03-06T11:54:16;1.00;;;0.70;;
40122;SDS011;25832;45.490;4.912;2024-03-06T11:56:49;0.93;;;0.75;;
40122;SDS011;25832;45.490;4.912;2024-03-06T11:59:16;4.53;;;1.00;;
40122;SDS011;25832;45.490;4.912;2024-03-06T12:01:42;2.72;;;1.08;;
40122;SDS011;25832;45.490;4.912;2024-03-06T12:04:09;1.90;;;1.17;;
40122;SDS011;25832;45.490;4.912;2024-03-06T12:06:35;3.83;;;1.48;;
40122;SDS011;25832;45.490;4.912;2024-03-06T12:09:02;1.40;;;1.02;;
40122;SDS011;25832;45.490;4.912;2024-03-06T12:11:28;2.58;;;1.40;;
40122;SDS011;25832;45.490;4.912;2024-03-06T12:13:56;1.88;;;1.10;;
40122;SDS011;25832;45.490;4.912;2024-03-06T12:16:22;2.40;;;1.20;;
40122;SDS011;25832;45.490;4.912;2024-03-06T12:18:54;1.52;;;1.10;;
40122;SDS011;25832;45.490;4.912;2024-03-06T12:21:22;2.42;;;1.48;;
40122;SDS011;25832;45.490;4.912;2024-03-06T12:24:07;1.20;;;0.98;;
40122;SDS011;25832;45.490;4.912;2024-03-06T12:26:34;1.00;;;0.90;;
40122;SDS011;25832;45.490;4.912;2024-03-06T12:29:07;1.17;;;0.80;;
40122;SDS011;25832;45.490;4.912;2024-03-06T12:31:34;1.95;;;0.85;;
40122;SDS011;25832;45.490;4.912;2024-03-06T12:34:01;1.48;;;0.80;;
40122;SDS011;25832;45.490;4.912;2024-03-06T12:36:28;2.05;;;0.73;;
40122;SDS011;25832;45.490;4.912;2024-03-06T12:38:55;0.55;;;0.52;;
40122;SDS011;25832;45.490;4.912;2024-03-06T12:41:21;2.33;;;0.65;;
40122;SDS011;25832;45.490;4.912;2024-03-06T12:43:47;0.30;;;0.30;;
40122;SDS011;25832;45.490;4.912;2024-03-06T12:46:13;1.15;;;0.45;;
40122;SDS011;25832;45.490;4.912;2024-03-06T12:48:38;1.65;;;0.75;;
40122;SDS011;25832;45.490;4.912;2024-03-06T12:51:04;3.15;;;0.90;;
40122;SDS011;25832;45.490;4.912;2024-03-06T12:53:30;1.65;;;0.52;;
40122;SDS011;25832;45.490;4.912;2024-03-06T12:55:57;0.98;;;0.40;;
40122;SDS011;25832;45.490;4.912;2024-03-06T12:58:23;1.13;;;0.47;;
40122;SDS011;25832;45.490;4.912;2024-03-06T13:00:49;3.17;;;0.68;;
40122;SDS011;25832;45.490;4.912;2024-03-06T13:03:17;1.45;;;0.60;;
40122;SDS011;25832;45.490;4.912;2024-03-06T13:05:43;1.23;;;0.60;;
40122;SDS011;25832;45.490;4.912;2024-03-06T13:08:09;2.33;;;0.60;;
40122;SDS011;25832;45.490;4.912;2024-03-06T13:10:39;1.48;;;0.60;;
40122;SDS011;25832;45.490;4.912;2024-03-06T13:13:05;0.90;;;0.60;;
40122;SDS011;25832;45.490;4.912;2024-03-06T13:15:31;1.55;;;1.13;;
40122;SDS011;25832;45.490;4.912;2024-03-06T13:17:59;3.38;;;0.80;;
40122;SDS011;25832;45.490;4.912;2024-03-06T13:20:28;0.88;;;0.50;;
40122;SDS011;25832;45.490;4.912;2024-03-06T13:22:55;3.03;;;0.75;;
40122;SDS011;25832;45.490;4.912;2024-03-06T13:25:20;1.90;;;0.68;;
40122;SDS011;25832;45.490;4.912;2024-03-06T13:27:46;1.90;;;0.88;;
40122;SDS011;25832;45.490;4.912;2024-03-06T13:30:12;1.02;;;0.50;;
40122;SDS011;25832;45.490;4.912;2024-03-06T13:32:38;1.67;;;1.00;;
40122;SDS011;25832;45.490;4.912;2024-03-06T13:35:04;0.88;;;0.65;;
40122;SDS011;25832;45.490;4.912;2024-03-06T13:37:31;4.15;;;1.27;;
40122;SDS011;25832;45.490;4.912;2024-03-06T13:39:59;2.90;;;0.70;;
40122;SDS011;25832;45.490;4.912;2024-03-06T13:42:26;1.05;;;0.63;;
40122;SDS011;25832;45.490;4.912;2024-03-06T13:44:52;1.90;;;1.02;;
40122;SDS011;25832;45.490;4.912;2024-03-06T13:47:19;2.20;;;1.02;;
40122;SDS011;25832;45.490;4.912;2024-03-06T13:49:44;6.43;;;2.42;;
40122;SDS011;25832;45.490;4.912;2024-03-06T13:52:10;15.60;;;6.82;;
40122;SDS011;25832;45.490;4.912;2024-03-06T13:54:38;7.05;;;1.75;;
40122;SDS011;25832;45.490;4.912;2024-03-06T13:57:05;3.88;;;1.08;;
40122;SDS011;25832;45.490;4.912;2024-03-06T13:59:33;2.63;;;1.00;;
40122;SDS011;25832;45.490;4.912;2024-03-06T14:01:59;2.25;;;1.15;;
40122;SDS011;25832;45.490;4.912;2024-03-06T14:04:25;2.90;;;1.35;;
40122;SDS011;25832;45.490;4.912;2024-03-06T14:06:51;1.08;;;0.95;;
40122;SDS011;25832;45.490;4.912;2024-03-06T14:09:17;3.55;;;1.02;;
40122;SDS011;25832;45.490;4.912;2024-03-06T14:11:43;3.70;;;0.93;;
40122;SDS011;25832;45.490;4.912;2024-03-06T14:14:09;1.52;;;0.85;;
40122;SDS011;25832;45.490;4.912;2024-03-06T14:16:36;4.35;;;0.90;;
40122;SDS011;25832;45.490;4.912;2024-03-06T14:19:02;4.68;;;1.25;;
40122;SDS011;25832;45.490;4.912;2024-03-06T14:21:29;4.07;;;1.08;;
40122;SDS011;25832;45.490;4.912;2024-03-06T14:23:56;6.18;;;1.10;;
40122;SDS011;25832;45.490;4.912;2024-03-06T14:26:24;2.30;;;1.08;;
40122;SDS011;25832;45.490;4.912;2024-03-06T14:28:52;3.42;;;1.02;;
40122;SDS011;25832;45.490;4.912;2024-03-06T14:31:18;8.02;;;1.48;;
40122;SDS011;25832;45.490;4.912;2024-03-06T14:33:43;13.90;;;1.50;;
40122;SDS011;25832;45.490;4.912;2024-03-06T14:36:10;3.00;;;1.73;;
40122;SDS011;25832;45.490;4.912;2024-03-06T14:38:35;5.93;;;1.08;;
40122;SDS011;25832;45.490;4.912;2024-03-06T14:41:01;1.92;;;1.05;;
40122;SDS011;25832;45.490;4.912;2024-03-06T14:43:26;2.63;;;1.17;;
40122;SDS011;25832;45.490;4.912;2024-03-06T14:45:52;2.70;;;1.23;;
40122;SDS011;25832;45.490;4.912;2024-03-06T14:48:18;2.70;;;1.48;;
40122;SDS011;25832;45.490;4.912;2024-03-06T14:50:43;3.65;;;1.10;;
40122;SDS011;25832;45.490;4.912;2024-03-06T14:53:09;4.38;;;1.40;;
40122;SDS011;25832;45.490;4.912;2024-03-06T14:55:35;6.40;;;1.63;;
40122;SDS011;25832;45.490;4.912;2024-03-06T14:58:01;2.67;;;1.23;;